This is the latest recevied weather packets stored in our database for station/object KJ7IVE-13. If no packets are shown the sender has not sent any weather packets the latest 10 day(s).
| Time | Temp. | Humidity | Pressure | Rain* | Wind** | Luminosity | Snow |
|---|---|---|---|---|---|---|---|
| 1777778206 | 17.78° C | 10% | 1017.5 hPa | 0 mm | - | 0 W/m² | - |
| 1777777904 | 17.78° C | 10% | 1017.4 hPa | 0 mm | - | 0 W/m² | - |
| 1777777599 | 17.78° C | 10% | 1017.4 hPa | 0 mm | - | 0 W/m² | - |
| 1777777296 | 18.33° C | 10% | 1017.2 hPa | 0 mm | - | 0 W/m² | - |
| 1777776992 | 18.33° C | 10% | 1017.3 hPa | 0 mm | - | 0 W/m² | - |
| 1777776691 | 18.89° C | 10% | 1017.5 hPa | 0 mm | - | 0 W/m² | - |
| 1777776387 | 18.89° C | 10% | 1017.5 hPa | 0 mm | - | 0 W/m² | - |
| 1777776084 | 18.89° C | 10% | 1017.3 hPa | 0 mm | - | 0 W/m² | - |
| 1777775782 | 18.89° C | 10% | 1017.2 hPa | 0 mm | - | 0 W/m² | - |
| 1777775478 | 18.89° C | 10% | 1017.2 hPa | 0 mm | - | 0 W/m² | - |
| 1777775174 | 19.44° C | 10% | 1017.4 hPa | 0 mm | - | 0 W/m² | - |
| 1777774869 | 19.44° C | 10% | 1017.4 hPa | 0 mm | - | 2 W/m² | - |
| 1777774566 | 19.44° C | 10% | 1017.4 hPa | 0 mm | - | 5 W/m² | - |
| 1777774263 | 20° C | 10% | 1017.3 hPa | 0 mm | - | 8 W/m² | - |
| 1777773960 | 20° C | 10% | 1017.2 hPa | 0 mm | - | 11 W/m² | - |
| 1777773657 | 20.56° C | 10% | 1017.2 hPa | 0 mm | - | 16 W/m² | - |
| 1777773354 | 20.56° C | 10% | 1017 hPa | 0 mm | - | 20 W/m² | - |
| 1777773051 | 20.56° C | 10% | 1017.3 hPa | 0 mm | - | 26 W/m² | - |
| 1777772747 | 20.56° C | 10% | 1017.3 hPa | 0 mm | - | 32 W/m² | - |
| 1777772445 | 21.11° C | 10% | 1017.4 hPa | 0 mm | - | 44 W/m² | - |
| 1777772142 | 21.11° C | 10% | 1017.3 hPa | 0 mm | - | 49 W/m² | - |
| 1777771537 | 21.11° C | 10% | 1017.2 hPa | 0 mm | - | 62 W/m² | - |
| 1777770930 | 21.11° C | 10% | 1017.4 hPa | 0 mm | - | 78 W/m² | - |
| 1777764261 | 22.22° C | 10% | 1018 hPa | 0 mm | - | 311 W/m² | - |
| 1777763655 | 22.22° C | 10% | 1018.1 hPa | 0 mm | - | 361 W/m² | - |
* Rain latest hour (hover to see other rain measurements)
** Current wind speed in m/s (hover to see current wind gust speed)